createdAt,value
2023-03-03T00:00:20.078Z,90.74
2023-03-03T00:04:07.329Z,91.63
2023-03-03T00:07:34.785Z,91.82
2023-03-03T00:11:03.393Z,92.16
2023-03-03T00:14:33.717Z,92.81
2023-03-03T00:18:03.418Z,92.39
2023-03-03T00:21:40.734Z,92.73
2023-03-03T00:25:30.786Z,93.03
2023-03-03T00:28:58.213Z,92.37
2023-03-03T00:32:29.048Z,92.25
2023-03-03T00:36:01.079Z,92.31
2023-03-03T00:39:33.190Z,92.57
2023-03-03T00:43:02.152Z,92.33
2023-03-03T00:46:31.622Z,92.33
2023-03-03T00:49:57.829Z,92.54
2023-03-03T00:53:27.148Z,92.57
2023-03-03T00:56:54.257Z,92.45
2023-03-03T01:00:22.698Z,92.44
2023-03-03T01:03:50.076Z,92.28
2023-03-03T01:07:17.785Z,92.15
2023-03-03T01:10:50.988Z,92.07
2023-03-03T01:14:18.921Z,92.16
2023-03-03T01:17:48.821Z,92.07
2023-03-03T01:21:16.048Z,91.94
2023-03-03T01:24:43.348Z,92.05
2023-03-03T01:28:11.338Z,91.96
2023-03-03T01:31:38.755Z,91.92
2023-03-03T01:35:07.058Z,92.07
2023-03-03T01:38:36.240Z,92.02
2023-03-03T01:42:03.702Z,92.21
2023-03-03T01:45:32.422Z,92.02
2023-03-03T01:49:03.733Z,91.83
2023-03-03T01:52:36.330Z,92.03
2023-03-03T01:56:07.069Z,91.87
2023-03-03T01:59:38.925Z,91.97
2023-03-03T02:03:07.106Z,91.77
2023-03-03T02:06:38.311Z,91.66
2023-03-03T02:10:11.836Z,91.74
2023-03-03T02:13:39.405Z,91.70
2023-03-03T02:17:06.552Z,91.69
2023-03-03T02:20:47.585Z,91.71
2023-03-03T02:24:23.019Z,91.67
2023-03-03T02:27:50.761Z,91.69
2023-03-03T02:31:19.945Z,91.74
2023-03-03T02:34:52.549Z,91.83
2023-03-03T02:38:26.794Z,91.89
2023-03-03T02:42:00.289Z,91.95
2023-03-03T02:45:32.326Z,91.87
2023-03-03T02:48:59.524Z,91.88
2023-03-03T02:52:26.856Z,91.85
2023-03-03T02:55:53.927Z,91.84
2023-03-03T02:59:21.684Z,91.76
2023-03-03T03:02:49.563Z,91.85
2023-03-03T03:06:20.268Z,91.97
2023-03-03T03:09:50.967Z,92.01
2023-03-03T03:13:18.198Z,91.84
2023-03-03T03:16:45.600Z,91.77
2023-03-03T03:20:15.247Z,91.75
2023-03-03T03:23:43.387Z,91.63
2023-03-03T03:27:11.854Z,91.76
2023-03-03T03:30:40.206Z,91.85
2023-03-03T03:34:07.605Z,91.78
2023-03-03T03:37:35.160Z,91.93
2023-03-03T03:41:02.687Z,92.05
2023-03-03T03:44:30.067Z,92.29
2023-03-03T03:47:57.266Z,92.38
2023-03-03T03:51:25.040Z,92.36
2023-03-03T03:54:52.381Z,92.35
2023-03-03T03:58:20.639Z,91.96
2023-03-03T04:01:55.572Z,91.91
2023-03-03T04:05:23.762Z,91.84
2023-03-03T04:08:51.265Z,91.90
2023-03-03T04:12:19.899Z,92.08
2023-03-03T04:15:47.763Z,92.30
2023-03-03T04:19:15.915Z,92.38
2023-03-03T04:22:43.527Z,92.79
2023-03-03T04:26:11.654Z,92.63
2023-03-03T04:29:39.154Z,92.93
2023-03-03T04:33:06.783Z,92.67
2023-03-03T04:36:36.813Z,92.67
2023-03-03T04:40:05.058Z,92.61
2023-03-03T04:43:32.754Z,92.56
2023-03-03T04:47:00.684Z,92.77
2023-03-03T04:50:28.286Z,92.56
2023-03-03T04:53:55.677Z,92.50
2023-03-03T04:57:23.070Z,92.32
2023-03-03T05:00:57.421Z,92.81
2023-03-03T05:04:25.893Z,93.17
2023-03-03T05:07:53.134Z,93.20
2023-03-03T05:11:20.335Z,93.41
2023-03-03T05:14:47.736Z,93.43
2023-03-03T05:18:15.043Z,93.57
2023-03-03T05:21:42.738Z,93.41
2023-03-03T05:25:12.689Z,93.39
2023-03-03T05:28:39.918Z,93.57
2023-03-03T05:32:07.098Z,93.63
2023-03-03T05:35:34.860Z,93.60
2023-03-03T05:39:02.008Z,93.68
2023-03-03T05:42:29.291Z,93.52
2023-03-03T05:45:59.488Z,93.65
2023-03-03T05:49:26.802Z,93.64
2023-03-03T05:52:54.633Z,93.45
2023-03-03T05:56:22.060Z,93.48
2023-03-03T05:59:49.168Z,93.43
2023-03-03T06:03:17.178Z,93.79
2023-03-03T06:06:44.388Z,93.79
2023-03-03T06:10:13.088Z,93.85
2023-03-03T06:13:42.718Z,94.24
2023-03-03T06:17:10.785Z,94.25
2023-03-03T06:20:38.794Z,94.22
2023-03-03T06:24:06.962Z,94.20
2023-03-03T06:27:34.111Z,94.05
2023-03-03T06:31:01.332Z,93.79
2023-03-03T06:34:28.966Z,93.81
2023-03-03T06:37:56.131Z,93.60
2023-03-03T06:41:23.414Z,93.79
2023-03-03T06:44:50.558Z,93.93
2023-03-03T06:48:17.781Z,93.84
2023-03-03T06:51:46.708Z,93.86
2023-03-03T06:55:19.616Z,93.68
2023-03-03T06:58:47.060Z,93.61
2023-03-03T07:02:19.231Z,93.34
2023-03-03T07:05:47.143Z,93.54
2023-03-03T07:09:22.479Z,93.47
2023-03-03T07:12:49.631Z,93.36
2023-03-03T07:16:18.486Z,93.24
2023-03-03T07:19:46.691Z,93.38
2023-03-03T07:23:22.964Z,93.37
2023-03-03T07:26:50.466Z,93.67
2023-03-03T07:30:28.053Z,93.62
2023-03-03T07:33:56.089Z,93.64
2023-03-03T07:37:32.952Z,93.58
2023-03-03T07:41:02.783Z,93.37
2023-03-03T07:44:35.780Z,93.40
2023-03-03T07:48:10.955Z,93.13
2023-03-03T07:51:42.719Z,92.94
2023-03-03T07:55:27.688Z,92.81
2023-03-03T07:58:56.109Z,92.79
2023-03-03T08:02:42.600Z,92.75
2023-03-03T08:06:33.652Z,92.67
2023-03-03T08:10:00.143Z,92.68
2023-03-03T08:13:29.826Z,92.48
2023-03-03T08:17:00.559Z,92.20
2023-03-03T08:20:49.514Z,92.17
2023-03-03T08:24:16.768Z,92.09
2023-03-03T08:27:43.797Z,92.18
2023-03-03T08:31:20.304Z,92.38
2023-03-03T08:34:52.535Z,92.06
2023-03-03T08:38:22.038Z,92.09
2023-03-03T08:41:48.067Z,92.36
2023-03-03T08:45:15.793Z,92.24
2023-03-03T08:48:42.922Z,92.26
2023-03-03T08:52:10.391Z,92.11
2023-03-03T08:55:37.657Z,91.88
2023-03-03T08:59:04.956Z,91.57
2023-03-03T09:02:32.060Z,91.45
2023-03-03T09:05:59.210Z,91.52
2023-03-03T09:09:26.741Z,91.48
2023-03-03T09:12:54.242Z,91.54
2023-03-03T09:16:22.575Z,91.54
2023-03-03T09:19:49.627Z,91.37
2023-03-03T09:23:34.858Z,91.27
2023-03-03T09:27:03.028Z,91.25
2023-03-03T09:30:46.638Z,91.35
2023-03-03T09:34:27.617Z,91.24
2023-03-03T09:37:56.153Z,91.08
2023-03-03T09:42:06.615Z,91.42
2023-03-03T09:45:47.361Z,91.13
2023-03-03T09:49:30.049Z,91.20
2023-03-03T09:53:11.649Z,91.09
2023-03-03T09:56:43.551Z,90.65
2023-03-03T10:00:27.217Z,90.96
2023-03-03T10:04:23.136Z,90.86
2023-03-03T10:08:14.038Z,91.08
2023-03-03T10:11:50.834Z,90.88
2023-03-03T10:15:28.865Z,90.89
2023-03-03T10:19:03.025Z,90.82
2023-03-03T10:22:40.481Z,90.67
2023-03-03T10:26:21.598Z,90.52
2023-03-03T10:30:00.684Z,90.31
2023-03-03T10:33:34.799Z,90.11
2023-03-03T10:37:11.579Z,90.35
2023-03-03T10:40:47.942Z,90.36
2023-03-03T10:44:34.430Z,90.10
2023-03-03T10:48:25.196Z,89.73
2023-03-03T10:52:20.155Z,90.10
2023-03-03T10:55:55.758Z,90.09
2023-03-03T10:59:45.300Z,90.03
2023-03-03T11:03:49.965Z,90.23
2023-03-03T11:07:23.903Z,90.10
2023-03-03T11:10:57.776Z,90.07
2023-03-03T11:14:32.801Z,90.01
2023-03-03T11:18:12.941Z,89.82
2023-03-03T11:21:48.175Z,89.98
2023-03-03T11:25:31.460Z,89.67
2023-03-03T11:29:15.159Z,89.38
2023-03-03T11:32:48.174Z,89.55
2023-03-03T11:36:22.413Z,89.40
2023-03-03T11:39:51.084Z,89.15
2023-03-03T11:43:36.061Z,89.57
2023-03-03T11:47:11.047Z,89.26
2023-03-03T11:50:44.747Z,89.40
2023-03-03T11:54:22.366Z,89.67
2023-03-03T11:57:54.767Z,89.12
2023-03-03T12:01:31.122Z,89.49
2023-03-03T12:05:05.982Z,89.33
2023-03-03T12:09:03.345Z,89.29
2023-03-03T12:12:37.841Z,89.10
2023-03-03T12:16:13.796Z,88.50
2023-03-03T12:19:55.514Z,88.90
2023-03-03T12:23:47.298Z,88.65
2023-03-03T12:27:24.005Z,88.75
2023-03-03T12:31:21.376Z,88.88
2023-03-03T12:34:55.740Z,88.70
2023-03-03T12:38:32.766Z,88.83
2023-03-03T12:42:07.799Z,88.92
2023-03-03T12:45:49.072Z,88.96
2023-03-03T12:49:16.216Z,89.06
2023-03-03T12:52:55.477Z,89.37
2023-03-03T12:56:31.946Z,89.30
2023-03-03T13:00:16.337Z,88.88
2023-03-03T13:03:55.847Z,88.29
2023-03-03T13:07:28.838Z,88.20
2023-03-03T13:11:00.864Z,88.20
2023-03-03T13:14:37.202Z,88.29
2023-03-03T13:18:20.779Z,88.19
2023-03-03T13:21:52.218Z,88.12
2023-03-03T13:25:42.040Z,88.18
2023-03-03T13:29:20.587Z,88.18
2023-03-03T13:32:54.158Z,88.04
2023-03-03T13:36:25.029Z,88.24
2023-03-03T13:40:01.090Z,87.45
2023-03-03T13:43:32.015Z,87.31
2023-03-03T13:47:11.358Z,87.48
2023-03-03T13:50:46.104Z,87.29
2023-03-03T13:54:28.820Z,87.51
2023-03-03T13:58:07.568Z,87.52
2023-03-03T14:01:47.335Z,87.37
2023-03-03T14:05:20.047Z,87.51
2023-03-03T14:08:56.911Z,87.01
2023-03-03T14:12:30.670Z,87.02
2023-03-03T14:16:02.922Z,87.09
2023-03-03T14:19:35.779Z,87.00
2023-03-03T14:23:10.035Z,87.25
2023-03-03T14:26:49.767Z,87.22
2023-03-03T14:30:36.074Z,86.81
2023-03-03T14:34:15.572Z,86.67
2023-03-03T14:37:48.461Z,86.98
2023-03-03T14:41:24.645Z,86.75
2023-03-03T14:44:59.281Z,86.75
2023-03-03T14:48:30.038Z,86.80
2023-03-03T14:52:05.304Z,86.78
2023-03-03T14:55:37.966Z,87.06
2023-03-03T14:59:21.661Z,86.96
2023-03-03T15:03:13.502Z,87.05
2023-03-03T15:06:45.627Z,87.01
2023-03-03T15:10:14.490Z,86.87
2023-03-03T15:13:42.077Z,86.69
2023-03-03T15:17:26.798Z,86.84
2023-03-03T15:21:03.325Z,87.06
2023-03-03T15:24:39.920Z,87.37
2023-03-03T15:28:23.718Z,87.33
2023-03-03T15:31:59.382Z,87.32
2023-03-03T15:35:37.778Z,87.29
2023-03-03T15:39:14.427Z,87.45
2023-03-03T15:42:49.191Z,87.57
2023-03-03T15:46:28.986Z,87.48
2023-03-03T15:50:12.067Z,87.55
2023-03-03T15:54:08.484Z,87.68
2023-03-03T15:57:44.816Z,87.75
2023-03-03T16:01:17.453Z,87.76
2023-03-03T16:04:54.120Z,87.60
2023-03-03T16:08:31.097Z,87.74
2023-03-03T16:12:05.730Z,87.63
2023-03-03T16:15:47.466Z,87.93
2023-03-03T16:19:26.812Z,88.02
2023-03-03T16:23:07.890Z,87.78
2023-03-03T16:26:44.698Z,88.10
2023-03-03T16:30:29.380Z,88.03
2023-03-03T16:34:04.139Z,88.23
2023-03-03T16:37:39.406Z,88.36
2023-03-03T16:41:12.174Z,88.13
2023-03-03T16:44:49.476Z,88.40
2023-03-03T16:48:27.878Z,88.60
2023-03-03T16:52:04.715Z,88.45
2023-03-03T16:55:37.598Z,88.48
2023-03-03T16:59:28.446Z,88.63
2023-03-03T17:03:14.935Z,88.53
2023-03-03T17:06:50.861Z,88.64
2023-03-03T17:10:29.183Z,88.78
2023-03-03T17:14:24.606Z,88.98
2023-03-03T17:18:03.745Z,89.04
2023-03-03T17:21:49.394Z,89.05
2023-03-03T17:25:24.061Z,89.29
2023-03-03T17:28:58.596Z,88.93
2023-03-03T17:32:37.475Z,89.04
2023-03-03T17:36:19.340Z,88.82
2023-03-03T17:39:58.678Z,89.03
2023-03-03T17:43:30.136Z,88.88
2023-03-03T17:47:01.640Z,89.15
2023-03-03T17:50:42.171Z,88.99
2023-03-03T17:54:23.586Z,89.42
2023-03-03T17:58:06.083Z,88.99
2023-03-03T18:01:46.509Z,89.43
2023-03-03T18:05:38.772Z,89.54
2023-03-03T18:09:20.354Z,89.40
2023-03-03T18:12:59.338Z,89.69
2023-03-03T18:16:38.231Z,89.94
2023-03-03T18:20:33.386Z,89.69
2023-03-03T18:24:28.228Z,90.34
2023-03-03T18:28:22.793Z,90.57
2023-03-03T18:32:06.540Z,90.14
2023-03-03T18:35:38.465Z,89.99
2023-03-03T18:39:15.037Z,90.21
2023-03-03T18:42:45.347Z,90.29
2023-03-03T18:46:34.795Z,90.50
2023-03-03T18:50:08.493Z,90.81
2023-03-03T18:54:05.453Z,90.91
2023-03-03T18:57:33.056Z,91.26
2023-03-03T19:01:04.268Z,91.22
2023-03-03T19:04:40.312Z,91.60
2023-03-03T19:08:23.008Z,91.44
2023-03-03T19:11:53.892Z,91.70
2023-03-03T19:15:58.239Z,91.69
2023-03-03T19:19:32.691Z,92.10
2023-03-03T19:23:14.543Z,92.32
2023-03-03T19:27:14.828Z,92.09
2023-03-03T19:30:57.048Z,92.41
2023-03-03T19:34:38.691Z,93.07
2023-03-03T19:38:23.341Z,92.94
2023-03-03T19:42:06.882Z,92.96
2023-03-03T19:45:50.307Z,93.07
2023-03-03T19:49:29.329Z,93.18
2023-03-03T19:53:06.069Z,93.22
2023-03-03T19:56:43.392Z,93.79
2023-03-03T20:00:23.396Z,93.37
2023-03-03T20:04:22.975Z,93.68
2023-03-03T20:08:02.455Z,94.05
2023-03-03T20:11:51.414Z,93.93
2023-03-03T20:15:21.236Z,94.16
2023-03-03T20:19:20.414Z,94.07
2023-03-03T20:22:58.737Z,94.15
2023-03-03T20:26:32.604Z,94.15
2023-03-03T20:30:13.349Z,94.38
2023-03-03T20:33:56.244Z,94.46
2023-03-03T20:37:33.533Z,94.13
2023-03-03T20:41:14.357Z,94.32
2023-03-03T20:44:57.746Z,94.21
2023-03-03T20:48:39.818Z,94.57
2023-03-03T20:52:15.706Z,94.66
2023-03-03T20:55:51.369Z,94.71
2023-03-03T20:59:29.095Z,94.78
2023-03-03T21:03:06.286Z,94.86
2023-03-03T21:06:41.911Z,94.73
2023-03-03T21:10:25.370Z,95.12
2023-03-03T21:13:54.449Z,94.39
2023-03-03T21:17:31.405Z,94.66
2023-03-03T21:20:58.513Z,94.80
2023-03-03T21:24:46.128Z,94.68
2023-03-03T21:28:22.504Z,94.56
2023-03-03T21:31:51.029Z,94.33
2023-03-03T21:35:21.895Z,94.18
2023-03-03T21:38:50.018Z,94.12
2023-03-03T21:42:19.244Z,94.25
2023-03-03T21:45:46.577Z,94.11
2023-03-03T21:49:13.991Z,94.06
2023-03-03T21:52:41.297Z,94.05
2023-03-03T21:56:09.761Z,94.01
2023-03-03T21:59:36.927Z,94.03
2023-03-03T22:03:04.256Z,93.93
2023-03-03T22:06:31.531Z,94.34
2023-03-03T22:09:58.797Z,94.32
2023-03-03T22:13:27.486Z,94.25
2023-03-03T22:16:54.724Z,94.17
2023-03-03T22:20:22.080Z,94.06
2023-03-03T22:23:49.250Z,94.04
2023-03-03T22:27:16.637Z,93.88
2023-03-03T22:30:44.181Z,93.64
2023-03-03T22:34:11.654Z,93.39
2023-03-03T22:37:39.003Z,93.34
2023-03-03T22:41:07.005Z,93.50
2023-03-03T22:44:34.145Z,93.52
2023-03-03T22:48:01.633Z,93.14
2023-03-03T22:51:29.193Z,93.58
2023-03-03T22:54:58.012Z,93.42
2023-03-03T22:58:27.489Z,93.58
2023-03-03T23:01:54.586Z,93.53
2023-03-03T23:05:22.011Z,93.55
2023-03-03T23:08:49.272Z,93.44
2023-03-03T23:12:19.687Z,93.52
2023-03-03T23:15:47.005Z,93.64
2023-03-03T23:19:14.488Z,93.68
2023-03-03T23:22:41.749Z,93.57
2023-03-03T23:26:09.014Z,93.59
2023-03-03T23:29:36.245Z,93.89
2023-03-03T23:33:03.338Z,93.40
2023-03-03T23:36:30.582Z,93.43
2023-03-03T23:39:57.834Z,93.48
2023-03-03T23:43:25.143Z,93.00
2023-03-03T23:46:52.319Z,93.38
2023-03-03T23:50:19.619Z,93.09
2023-03-03T23:53:49.802Z,93.12
2023-03-03T23:57:17.163Z,93.11
